Pagrindinis puslapis
METAR-TAF:

METAR-TAF

Oro uostai :

Roskildė, Danija

platuma: 55-35N, ilguma: 012-08E, Aukštis: 44 m

Dabartinis oras

Ataskaita buvo paskelbta 25 minutes, ne 03:20 UTC
Vėjas 5 kt iš Vakarų
Temperatūra 13°C
Drėgmė 88%
Slėgis 1011 hPa
Matomumas 10 km arba daugiau

METAR: EKRK 220320Z AUTO 27005KT 9999 SCT048/// OVC077/// 13/11 Q1011

Laikas: 05:45 (03:45 UTC)

Prognozė

Ataskaita buvo paskelbta 1 valandą ir 18 minutes, ne 02:27 UTC
Prognozė galioja nuo 22 metu 03 UTC su 22 metu 12 UTC
Vėjas 7 kt iš Vakarų
Matomumas 10 km arba daugiau
Išsisklaidę debesys ne aukštis 1500 ft

TAF: EKRK 220227Z 2203/2212 28007KT 9999 SCT015

Orai ataskaitas ir orų prognozės (METAR, TAF).

turimą stotys yra geltonos ir raudonos taškus žemėlapyje.

Perkelti pele per norėdami pamatyti stoties vardą.

Tada spustelėkite, norėdami matyti oro stebėjimo ir prognozės.

Norėdami pakeisti žemėlapį: spustelėkite ant žalios mygtukų su juodo kryžiaus žemyn,; žalią mygtuką su brūkšneliu, jei norite nutolinti; arba žalių rodyklių gretimoms žemėlapius.


METAR-TAF: